Time;durP1;ratioP1;P1;durP2;ratioP2;P2;SDS_P1;SDS_P2;PMS_P1;PMS_P2;Temp;Humidity;BMP_temperature;BMP_pressure;BME280_temperature;BME280_humidity;BME280_pressure;Samples;Min_cycle;Max_cycle;Signal;HPM_P1;HPM_P2
2021/03/30 04:02:02;;;;;;;14.70;7.57;;;7.30;99.90;;;;;;5320032;23;20475;-69
2021/03/30 04:04:31;;;;;;;10.87;7.23;;;7.30;99.90;;;;;;4993845;28;20486;-70
2021/03/30 04:07:03;;;;;;;10.60;7.63;;;7.30;99.90;;;;;;4994167;28;20521;-71
2021/03/30 04:09:30;;;;;;;9.10;7.43;;;7.30;99.90;;;;;;4997659;28;20499;-70
2021/03/30 04:11:59;;;;;;;9.53;6.37;;;7.30;99.90;;;;;;4997353;28;20838;-72
2021/03/30 04:14:25;;;;;;;10.30;7.47;;;7.30;99.90;;;;;;4997136;28;20458;-69
2021/03/30 04:16:52;;;;;;;12.63;8.50;;;7.30;99.90;;;;;;4997486;28;20855;-70
2021/03/30 04:19:19;;;;;;;8.37;6.60;;;7.30;99.90;;;;;;4997491;28;20461;-70
2021/03/30 04:21:45;;;;;;;8.37;7.40;;;7.30;99.90;;;;;;4997323;28;20477;-70
2021/03/30 04:24:12;;;;;;;8.53;7.50;;;7.30;99.90;;;;;;4997614;28;20523;-70
2021/03/30 04:26:39;;;;;;;9.47;7.43;;;7.30;99.90;;;;;;4999816;28;20481;-71
2021/03/30 04:29:07;;;;;;;11.07;7.53;;;7.20;99.90;;;;;;5001488;28;20866;-71
2021/03/30 04:31:33;;;;;;;10.47;7.57;;;7.20;99.90;;;;;;5000177;28;20492;-71
2021/03/30 04:34:00;;;;;;;8.30;7.13;;;7.10;99.90;;;;;;4999911;28;20916;-71
2021/03/30 04:36:27;;;;;;;8.73;7.30;;;7.10;99.90;;;;;;4997441;28;20940;-70
2021/03/30 04:38:53;;;;;;;7.90;6.53;;;7.00;99.90;;;;;;4997536;28;20497;-70
2021/03/30 04:41:19;;;;;;;11.73;7.77;;;7.00;99.90;;;;;;4997041;28;20485;-70
2021/03/30 04:43:45;;;;;;;11.60;6.93;;;7.00;99.90;;;;;;4996807;28;20438;-71
2021/03/30 04:46:12;;;;;;;12.10;6.80;;;7.00;99.90;;;;;;4997224;28;20821;-70
2021/03/30 04:48:38;;;;;;;7.70;6.47;;;6.90;99.90;;;;;;4996778;28;20460;-71
2021/03/30 04:51:05;;;;;;;7.70;6.63;;;6.90;99.90;;;;;;4996830;28;20477;-72
2021/03/30 04:53:33;;;;;;;9.77;7.47;;;6.80;99.90;;;;;;4997028;28;20480;-71
2021/03/30 04:55:59;;;;;;;8.80;6.40;;;6.80;99.90;;;;;;4996417;28;20963;-72
2021/03/30 04:58:26;;;;;;;6.83;6.17;;;6.80;99.90;;;;;;4996653;28;20453;-71
2021/03/30 05:00:52;;;;;;;12.40;7.10;;;6.70;99.90;;;;;;4996217;28;20482;-71
2021/03/30 05:03:18;;;;;;;11.80;6.70;;;6.70;99.90;;;;;;4996787;28;20442;-71
2021/03/30 05:05:44;;;;;;;7.93;7.13;;;6.70;99.90;;;;;;4996564;28;20477;-71
2021/03/30 05:08:10;;;;;;;11.10;6.90;;;6.70;99.90;;;;;;4997249;28;20457;-71
2021/03/30 05:10:38;;;;;;;10.50;6.80;;;6.70;99.90;;;;;;4996064;28;21014;-71
2021/03/30 05:13:05;;;;;;;7.93;6.27;;;6.80;99.90;;;;;;4996371;28;20520;-71
2021/03/30 05:15:31;;;;;;;10.33;6.93;;;6.70;99.90;;;;;;4996711;28;20477;-71
2021/03/30 05:17:57;;;;;;;8.97;5.87;;;6.70;99.90;;;;;;4996219;28;20779;-70
2021/03/30 05:20:23;;;;;;;9.23;6.93;;;6.70;99.90;;;;;;4995865;28;20445;-70
2021/03/30 05:22:49;;;;;;;11.17;7.50;;;6.70;99.90;;;;;;4995900;28;20438;-70
2021/03/30 05:25:16;;;;;;;7.53;6.07;;;6.80;99.90;;;;;;4995645;28;20461;-70
2021/03/30 05:27:43;;;;;;;9.33;6.67;;;6.80;99.90;;;;;;4995631;28;20462;-70
2021/03/30 05:30:12;;;;;;;8.47;7.00;;;6.80;99.90;;;;;;4995571;28;20454;-70
2021/03/30 05:32:38;;;;;;;9.60;6.87;;;6.80;99.90;;;;;;4995562;28;20453;-70
2021/03/30 05:35:07;;;;;;;8.00;7.10;;;6.80;99.90;;;;;;4995598;28;20454;-70
2021/03/30 05:37:33;;;;;;;10.10;6.03;;;6.90;99.90;;;;;;4995551;28;20808;-70
2021/03/30 05:39:59;;;;;;;13.87;7.77;;;7.00;99.90;;;;;;4995395;28;20459;-70
2021/03/30 05:42:26;;;;;;;9.70;6.70;;;7.00;99.90;;;;;;4995463;28;20477;-70
2021/03/30 05:44:54;;;;;;;9.60;6.37;;;7.10;99.90;;;;;;4995411;28;20453;-70
2021/03/30 05:47:23;;;;;;;8.60;6.70;;;7.20;99.90;;;;;;4995462;28;20489;-71
2021/03/30 05:49:51;;;;;;;6.63;5.93;;;7.40;99.90;;;;;;4995075;28;20987;-68
2021/03/30 05:52:23;;;;;;;7.50;6.70;;;7.90;99.90;;;;;;4995114;28;20476;-68
2021/03/30 05:54:54;;;;;;;10.00;7.00;;;8.50;99.90;;;;;;4995356;28;20489;-69
2021/03/30 05:57:24;;;;;;;8.07;5.93;;;8.70;99.90;;;;;;4995242;28;20435;-68
2021/03/30 05:59:55;;;;;;;10.47;7.07;;;8.80;99.90;;;;;;4995181;28;20455;-68
2021/03/30 06:02:22;;;;;;;11.03;6.90;;;8.90;99.90;;;;;;4994673;28;20490;-68
2021/03/30 06:04:50;;;;;;;7.17;6.53;;;8.90;99.90;;;;;;4994997;28;20458;-67
2021/03/30 06:07:17;;;;;;;9.77;5.73;;;9.20;99.90;;;;;;4994922;28;20480;-68
2021/03/30 06:09:45;;;;;;;13.13;6.67;;;9.30;99.90;;;;;;4995522;28;20454;-72
2021/03/30 06:12:13;;;;;;;7.40;6.00;;;9.30;99.90;;;;;;4999560;28;20536;-72
2021/03/30 06:14:43;;;;;;;9.10;7.13;;;9.60;99.90;;;;;;4998294;28;20438;-71
2021/03/30 06:17:12;;;;;;;7.13;6.07;;;10.00;99.90;;;;;;4995234;28;20476;-72
2021/03/30 06:19:49;;;;;;;8.20;6.30;;;10.50;99.90;;;;;;4994936;28;20460;-73
2021/03/30 06:22:15;;;;;;;7.83;6.40;;;11.10;99.90;;;;;;4995720;28;20484;-73
2021/03/30 06:24:43;;;;;;;10.93;7.00;;;11.60;99.90;;;;;;4995646;28;20453;-73
2021/03/30 06:27:24;;;;;;;7.80;7.10;;;12.20;99.90;;;;;;4994740;28;21089;-71
2021/03/30 06:29:52;;;;;;;8.23;6.73;;;12.70;99.90;;;;;;4994639;28;20434;-72
2021/03/30 06:32:21;;;;;;;8.97;7.10;;;13.20;99.90;;;;;;4996077;28;20532;-72
2021/03/30 06:34:50;;;;;;;7.40;6.70;;;13.70;99.90;;;;;;4997055;28;20454;-72
2021/03/30 06:37:31;;;;;;;9.23;6.33;;;14.00;99.90;;;;;;4995653;28;20457;-72
2021/03/30 06:39:59;;;;;;;9.80;6.23;;;14.40;98.90;;;;;;4996162;28;20453;-73
2021/03/30 06:42:30;;;;;;;8.80;6.47;;;15.10;98.10;;;;;;4995102;28;20484;-71
2021/03/30 06:44:57;;;;;;;16.90;9.50;;;15.50;95.70;;;;;;4994354;28;20552;-72
2021/03/30 06:47:24;;;;;;;7.87;7.07;;;16.10;93.90;;;;;;4994250;28;20478;-72
2021/03/30 06:49:53;;;;;;;7.70;6.90;;;16.60;90.90;;;;;;4994642;28;20457;-72
2021/03/30 06:52:21;;;;;;;9.87;7.30;;;16.90;88.90;;;;;;4994135;28;20480;-71
2021/03/30 06:54:52;;;;;;;14.70;9.10;;;17.20;87.60;;;;;;4994189;28;20465;-72
2021/03/30 06:57:39;;;;;;;7.87;6.53;;;17.50;85.80;;;;;;4993945;28;20944;-72
2021/03/30 07:00:10;;;;;;;8.17;5.70;;;17.90;82.30;;;;;;4994260;28;20438;-72
2021/03/30 07:02:40;;;;;;;8.00;6.50;;;18.30;78.70;;;;;;4993813;28;20481;-74
2021/03/30 07:05:08;;;;;;;6.60;5.60;;;18.40;78.40;;;;;;4994391;28;20469;-71
2021/03/30 07:07:35;;;;;;;9.20;5.80;;;18.40;76.60;;;;;;4994327;28;20457;-70
2021/03/30 07:10:02;;;;;;;6.47;5.87;;;18.60;75.80;;;;;;4996077;28;20468;-72
2021/03/30 07:12:29;;;;;;;7.37;5.70;;;18.80;75.20;;;;;;4994413;28;20488;-73
2021/03/30 07:14:55;;;;;;;7.40;6.30;;;19.20;73.40;;;;;;4994531;28;20454;-73
2021/03/30 07:17:30;;;;;;;6.80;6.10;;;19.20;70.80;;;;;;4994306;28;20438;-73
2021/03/30 07:20:04;;;;;;;6.50;5.60;;;18.90;69.40;;;;;;4993883;28;20910;-73
2021/03/30 07:22:31;;;;;;;6.93;6.23;;;19.10;69.30;;;;;;4994928;28;20484;-73
2021/03/30 07:25:03;;;;;;;6.67;6.00;;;19.20;69.80;;;;;;4994389;28;20453;-72
2021/03/30 07:27:35;;;;;;;6.87;6.20;;;19.30;67.90;;;;;;4994250;28;20973;-72
2021/03/30 07:30:02;;;;;;;7.90;6.43;;;19.30;67.80;;;;;;4994519;28;20500;-71
2021/03/30 07:32:38;;;;;;;9.13;6.30;;;19.50;66.60;;;;;;4994249;28;20478;-72
2021/03/30 07:35:12;;;;;;;9.50;6.70;;;19.40;65.60;;;;;;4994445;28;20441;-73
2021/03/30 07:37:45;;;;;;;7.90;7.20;;;19.70;65.90;;;;;;4994482;28;20503;-73
2021/03/30 07:40:15;;;;;;;10.63;6.90;;;19.70;65.50;;;;;;4995420;28;20445;-71
2021/03/30 07:42:43;;;;;;;10.50;6.40;;;20.00;64.80;;;;;;4996314;28;20442;-73
2021/03/30 07:45:12;;;;;;;12.67;7.13;;;20.20;64.40;;;;;;4998650;28;20465;-73
2021/03/30 07:47:39;;;;;;;7.33;6.63;;;20.80;64.30;;;;;;4998874;28;20446;-72
2021/03/30 07:50:07;;;;;;;10.57;6.60;;;21.30;62.70;;;;;;4998904;28;20445;-72
2021/03/30 07:52:40;;;;;;;15.37;7.40;;;21.80;61.30;;;;;;4999072;28;20473;-71
2021/03/30 07:55:30;;;;;;;7.07;6.40;;;21.90;60.30;;;;;;4998115;28;20442;-72
2021/03/30 07:58:11;;;;;;;9.30;6.97;;;22.20;59.60;;;;;;4983032;28;20469;-72
2021/03/30 08:03:16;;;;;;;13.63;7.40;;;21.30;58.50;;;;;;5385838;23;20486;-64
2021/03/30 08:05:43;;;;;;;8.30;7.00;;;22.00;59.40;;;;;;4997711;28;20529;-64
2021/03/30 08:08:23;;;;;;;10.50;6.23;;;22.80;58.10;;;;;;4997582;28;20461;-64
2021/03/30 08:10:51;;;;;;;9.97;6.80;;;23.30;57.40;;;;;;4997484;28;20480;-65
2021/03/30 08:13:25;;;;;;;10.60;6.80;;;23.80;56.50;;;;;;4997572;28;20474;-64
2021/03/30 08:15:53;;;;;;;10.50;7.10;;;24.00;55.00;;;;;;4997397;28;20449;-65
2021/03/30 08:18:20;;;;;;;8.43;6.33;;;24.40;56.10;;;;;;4997439;28;20505;-64
2021/03/30 08:20:55;;;;;;;8.10;7.30;;;24.60;52.60;;;;;;4997119;28;20998;-65
2021/03/30 08:23:22;;;;;;;7.10;6.60;;;24.40;53.20;;;;;;4997693;28;20869;-64
2021/03/30 08:25:52;;;;;;;8.40;7.60;;;24.60;54.40;;;;;;4997124;28;20469;-64
2021/03/30 08:28:55;;;;;;;10.53;7.30;;;24.20;54.00;;;;;;4996894;28;20812;-65
2021/03/30 08:31:23;;;;;;;7.90;7.20;;;24.30;52.90;;;;;;4996795;28;20798;-64
2021/03/30 08:33:52;;;;;;;8.53;7.30;;;25.30;53.50;;;;;;4996948;28;20485;-65
2021/03/30 08:36:25;;;;;;;7.43;6.73;;;25.20;52.10;;;;;;4996955;28;20813;-65
2021/03/30 08:38:54;;;;;;;8.23;7.33;;;25.70;52.50;;;;;;4996551;28;20940;-65
2021/03/30 08:41:49;;;;;;;8.20;6.70;;;26.20;51.10;;;;;;4996914;28;20465;-65
2021/03/30 08:44:17;;;;;;;11.00;6.80;;;26.60;49.60;;;;;;4997009;28;20462;-65
2021/03/30 08:46:45;;;;;;;7.70;6.97;;;26.90;50.80;;;;;;4996979;28;20480;-64
2021/03/30 08:49:27;;;;;;;9.80;7.47;;;27.00;50.70;;;;;;4997233;28;20450;-64
2021/03/30 08:51:57;;;;;;;8.43;7.53;;;27.40;49.30;;;;;;4997037;28;20438;-65
2021/03/30 08:54:25;;;;;;;9.27;7.60;;;27.50;48.10;;;;;;4996204;28;20442;-64
2021/03/30 08:56:52;;;;;;;7.63;7.00;;;27.50;48.20;;;;;;4996553;28;20450;-65
2021/03/30 08:59:19;;;;;;;7.33;6.60;;;28.30;47.90;;;;;;4996505;28;20561;-65
2021/03/30 09:01:46;;;;;;;6.70;6.20;;;28.90;46.10;;;;;;4996526;28;20544;-65
2021/03/30 09:04:12;;;;;;;8.03;7.33;;;29.20;45.70;;;;;;4996292;28;20462;-64
2021/03/30 09:06:40;;;;;;;6.53;5.93;;;28.60;45.20;;;;;;4996104;28;20556;-65
2021/03/30 09:09:21;;;;;;;10.20;7.13;;;28.50;47.40;;;;;;4996038;28;20835;-66
2021/03/30 09:11:48;;;;;;;6.63;6.03;;;29.20;46.20;;;;;;4996635;28;20446;-65
2021/03/30 09:14:17;;;;;;;7.60;6.60;;;28.60;45.80;;;;;;4996643;28;20458;-65
2021/03/30 09:16:45;;;;;;;7.33;6.60;;;29.10;45.30;;;;;;4996420;28;20473;-64
2021/03/30 09:19:17;;;;;;;6.90;6.20;;;28.80;45.40;;;;;;4996489;28;20453;-65
2021/03/30 09:21:45;;;;;;;8.07;6.73;;;29.10;43.40;;;;;;4996002;28;20520;-64
2021/03/30 09:24:20;;;;;;;12.70;6.40;;;30.10;43.50;;;;;;4995829;28;20955;-67
2021/03/30 09:26:50;;;;;;;6.83;5.97;;;29.50;43.40;;;;;;4996131;28;20484;-63
2021/03/30 09:29:17;;;;;;;7.13;6.43;;;28.10;43.50;;;;;;4995773;28;20447;-64
2021/03/30 09:31:44;;;;;;;7.97;7.17;;;28.10;45.20;;;;;;4996376;28;20512;-67
2021/03/30 09:34:10;;;;;;;7.80;7.10;;;28.60;45.50;;;;;;4996110;28;20453;-65
2021/03/30 09:36:43;;;;;;;7.20;6.40;;;29.00;43.60;;;;;;4996129;28;20532;-66
2021/03/30 09:39:17;;;;;;;9.67;6.90;;;29.60;42.90;;;;;;4997422;28;20844;-65
2021/03/30 09:41:45;;;;;;;7.10;6.47;;;29.00;44.00;;;;;;4995416;28;20454;-65
2021/03/30 09:44:13;;;;;;;8.87;6.70;;;30.10;43.10;;;;;;4995856;28;20504;-65
2021/03/30 09:46:39;;;;;;;7.00;6.30;;;30.80;43.20;;;;;;4996400;28;20477;-66
2021/03/30 09:49:08;;;;;;;7.53;6.70;;;31.20;40.10;;;;;;4995592;28;20450;-65
2021/03/30 09:51:36;;;;;;;8.23;7.23;;;31.90;39.20;;;;;;4995620;28;20450;-65
2021/03/30 09:54:17;;;;;;;13.93;6.80;;;31.60;41.30;;;;;;4995499;28;20450;-65
2021/03/30 09:56:43;;;;;;;9.10;7.73;;;32.30;39.80;;;;;;4995673;28;20434;-65
2021/03/30 09:59:10;;;;;;;7.27;6.60;;;31.20;38.40;;;;;;4995489;28;20819;-65
2021/03/30 10:01:37;;;;;;;9.20;7.10;;;31.60;38.90;;;;;;4995293;28;20461;-65
2021/03/30 10:04:04;;;;;;;7.50;6.87;;;32.00;41.50;;;;;;4995615;28;20956;-65
2021/03/30 10:06:30;;;;;;;10.50;7.60;;;31.90;37.70;;;;;;4995134;28;20474;-65
2021/03/30 10:09:04;;;;;;;11.47;7.87;;;32.40;38.00;;;;;;4996155;28;20477;-65
2021/03/30 10:11:30;;;;;;;11.17;8.23;;;31.30;39.40;;;;;;4995655;28;20928;-65
2021/03/30 10:14:16;;;;;;;10.57;8.03;;;31.30;43.50;;;;;;4995389;28;20583;-66
2021/03/30 10:16:44;;;;;;;10.13;7.10;;;31.50;40.20;;;;;;4995268;28;20823;-66
2021/03/30 10:19:11;;;;;;;12.30;7.50;;;30.60;42.10;;;;;;4995150;28;20461;-66
2021/03/30 10:21:38;;;;;;;10.43;7.63;;;30.90;41.20;;;;;;4995293;28;20454;-66
2021/03/30 10:24:11;;;;;;;8.70;7.43;;;30.40;42.10;;;;;;4995260;28;20458;-65
2021/03/30 10:26:38;;;;;;;8.27;7.47;;;30.80;40.40;;;;;;4995019;28;20995;-66
2021/03/30 10:29:10;;;;;;;7.53;6.83;;;31.20;42.20;;;;;;4995039;28;20795;-64
2021/03/30 10:31:41;;;;;;;13.63;7.60;;;31.90;41.20;;;;;;4995360;28;20442;-64
2021/03/30 10:34:30;;;;;;;12.13;8.63;;;31.90;38.40;;;;;;4995318;28;20812;-64
2021/03/30 10:36:58;;;;;;;7.80;7.10;;;32.00;38.20;;;;;;4990825;28;20457;-64
2021/03/30 10:39:29;;;;;;;15.23;7.27;;;32.60;37.70;;;;;;4995242;28;20456;-64
2021/03/30 10:42:02;;;;;;;7.30;6.57;;;32.40;37.00;;;;;;4995248;28;20546;-64
2021/03/30 10:44:36;;;;;;;7.50;6.40;;;31.50;40.10;;;;;;4995250;28;20520;-63
2021/03/30 10:47:18;;;;;;;7.80;7.10;;;32.00;40.00;;;;;;4995324;28;20477;-64
2021/03/30 10:49:47;;;;;;;7.63;6.70;;;32.40;42.40;;;;;;4995713;28;20549;-64
2021/03/30 10:52:20;;;;;;;7.63;6.80;;;32.80;41.90;;;;;;4995047;28;20478;-63
2021/03/30 10:54:48;;;;;;;7.53;6.60;;;33.10;36.20;;;;;;4995662;28;20454;-64
2021/03/30 10:57:17;;;;;;;9.37;6.53;;;33.30;36.30;;;;;;4994969;28;20450;-64
2021/03/30 10:59:44;;;;;;;10.30;6.50;;;33.40;35.10;;;;;;4994798;28;20457;-63
2021/03/30 11:02:11;;;;;;;10.70;6.87;;;31.40;38.70;;;;;;4994550;28;20469;-65
2021/03/30 11:04:38;;;;;;;7.47;6.63;;;31.70;37.10;;;;;;4994931;28;20449;-66
2021/03/30 11:07:06;;;;;;;6.63;6.03;;;32.20;40.70;;;;;;4994473;28;20477;-67
2021/03/30 11:09:32;;;;;;;8.00;6.70;;;32.00;41.70;;;;;;4994209;28;20949;-66
2021/03/30 11:11:59;;;;;;;6.13;5.17;;;31.50;39.20;;;;;;4994646;28;20486;-65
2021/03/30 11:14:25;;;;;;;9.13;7.10;;;31.80;38.50;;;;;;4995618;28;20457;-65
2021/03/30 11:16:52;;;;;;;10.20;6.90;;;31.70;36.70;;;;;;4996550;28;20449;-66
2021/03/30 11:19:18;;;;;;;6.67;5.90;;;31.40;38.70;;;;;;4998897;28;20535;-65
2021/03/30 11:21:45;;;;;;;6.03;5.20;;;31.00;42.50;;;;;;4999089;28;20453;-65
2021/03/30 11:24:16;;;;;;;6.77;5.80;;;30.70;39.10;;;;;;4998712;28;20979;-65
2021/03/30 11:26:44;;;;;;;7.83;6.30;;;30.20;42.90;;;;;;4999048;28;20576;-65
2021/03/30 11:29:16;;;;;;;6.83;6.23;;;30.20;38.60;;;;;;4998677;28;20523;-64
2021/03/30 11:31:53;;;;;;;9.70;5.87;;;29.90;40.70;;;;;;4998255;28;20800;-64
2021/03/30 11:34:23;;;;;;;6.37;5.77;;;29.30;37.00;;;;;;4998554;28;20480;-66
2021/03/30 11:36:53;;;;;;;6.10;5.60;;;29.00;39.90;;;;;;4998175;28;20434;-64
2021/03/30 11:39:20;;;;;;;5.23;4.40;;;28.30;40.60;;;;;;4998448;28;20468;-64
2021/03/30 11:41:47;;;;;;;5.77;5.17;;;27.90;40.20;;;;;;4998984;28;20469;-64
2021/03/30 11:44:13;;;;;;;5.30;4.43;;;27.60;41.70;;;;;;4998583;28;20457;-65
2021/03/30 11:46:39;;;;;;;5.93;5.10;;;27.50;39.20;;;;;;4998316;28;20474;-65
2021/03/30 11:49:05;;;;;;;8.40;6.00;;;27.50;39.90;;;;;;4997996;28;20450;-64
2021/03/30 11:51:32;;;;;;;6.40;4.80;;;27.20;40.40;;;;;;4998156;28;20822;-65
2021/03/30 11:53:59;;;;;;;6.07;4.57;;;27.20;44.90;;;;;;4997978;28;20527;-65
2021/03/30 11:56:26;;;;;;;7.70;5.10;;;27.20;40.80;;;;;;4997875;28;20544;-65
2021/03/30 11:58:52;;;;;;;11.00;4.70;;;27.30;39.90;;;;;;4997965;28;20438;-65
2021/03/30 12:01:18;;;;;;;5.33;4.93;;;27.30;40.00;;;;;;4997921;28;20458;-64
2021/03/30 12:03:44;;;;;;;7.20;4.33;;;26.80;40.80;;;;;;4997669;28;20477;-65
2021/03/30 12:06:10;;;;;;;6.60;4.83;;;26.90;41.20;;;;;;4998310;28;20477;-65
2021/03/30 12:08:37;;;;;;;6.90;5.00;;;26.90;40.00;;;;;;4998011;28;20457;-65
2021/03/30 12:11:03;;;;;;;6.47;5.17;;;27.00;41.80;;;;;;5002608;28;20490;-65
2021/03/30 12:13:31;;;;;;;5.10;4.60;;;27.10;39.90;;;;;;5009644;28;20476;-64
2021/03/30 12:15:57;;;;;;;5.60;4.27;;;27.00;40.90;;;;;;5005130;28;20457;-65
2021/03/30 12:18:23;;;;;;;6.80;4.10;;;26.90;38.20;;;;;;4998209;28;20458;-65
2021/03/30 12:20:49;;;;;;;5.00;4.33;;;26.70;37.90;;;;;;4997411;28;20652;-65
2021/03/30 12:23:15;;;;;;;6.37;4.00;;;26.50;39.00;;;;;;4997315;28;20482;-65
2021/03/30 12:25:41;;;;;;;5.30;4.40;;;26.60;39.80;;;;;;4997167;28;20454;-65
2021/03/30 12:28:08;;;;;;;4.73;4.30;;;26.80;37.20;;;;;;4996199;28;20458;-65
2021/03/30 12:30:35;;;;;;;5.67;5.17;;;26.70;38.90;;;;;;4997821;28;20454;-65
2021/03/30 12:33:01;;;;;;;5.40;4.60;;;26.80;39.70;;;;;;4997099;28;20473;-65
2021/03/30 12:35:27;;;;;;;5.90;4.77;;;27.00;38.30;;;;;;4997097;28;20461;-65
2021/03/30 12:37:54;;;;;;;13.77;4.77;;;26.80;37.70;;;;;;4997061;28;20454;-65
2021/03/30 12:40:20;;;;;;;7.30;5.07;;;27.00;39.90;;;;;;4997054;28;20461;-66
2021/03/30 12:42:47;;;;;;;7.50;4.47;;;26.90;40.40;;;;;;4996876;28;20476;-65
2021/03/30 12:45:14;;;;;;;4.60;4.20;;;27.40;40.50;;;;;;4997098;28;20826;-65
2021/03/30 12:47:41;;;;;;;5.70;4.00;;;27.50;39.20;;;;;;4996884;28;20486;-65
2021/03/30 12:50:08;;;;;;;5.63;3.90;;;27.70;36.20;;;;;;4996710;28;20963;-66
2021/03/30 12:52:35;;;;;;;4.90;4.33;;;27.90;39.50;;;;;;4996657;28;20473;-65
2021/03/30 12:55:06;;;;;;;5.20;4.73;;;27.60;39.30;;;;;;4996956;28;20458;-65
2021/03/30 12:57:33;;;;;;;5.47;4.60;;;27.40;37.50;;;;;;4997282;28;20486;-64
2021/03/30 12:59:59;;;;;;;4.50;4.20;;;27.30;40.10;;;;;;4997183;28;20450;-65
2021/03/30 13:02:26;;;;;;;5.37;4.30;;;27.30;38.50;;;;;;4996566;28;20488;-65
2021/03/30 13:04:53;;;;;;;7.40;4.43;;;27.40;39.30;;;;;;4996595;28;20454;-65
2021/03/30 13:07:19;;;;;;;8.50;4.50;;;27.50;38.90;;;;;;4997462;28;20500;-65
2021/03/30 13:09:47;;;;;;;5.40;4.37;;;27.40;37.60;;;;;;4997610;28;20937;-65
2021/03/30 13:12:13;;;;;;;50.67;6.27;;;27.60;38.60;;;;;;4998062;28;20474;-63
2021/03/30 13:14:39;;;;;;;6.60;3.90;;;27.40;38.70;;;;;;4997698;28;20460;-64
2021/03/30 13:17:06;;;;;;;4.83;3.80;;;27.70;44.10;;;;;;4998633;28;20450;-63
2021/03/30 13:19:32;;;;;;;4.40;3.70;;;27.90;40.70;;;;;;4996966;28;21003;-63
2021/03/30 13:22:00;;;;;;;6.43;3.43;;;27.90;37.80;;;;;;4996882;28;20544;-64
2021/03/30 13:24:29;;;;;;;5.40;4.10;;;27.70;39.30;;;;;;4996381;28;20462;-64
2021/03/30 13:26:55;;;;;;;4.23;3.93;;;27.70;37.50;;;;;;4996343;28;20473;-64
2021/03/30 13:29:21;;;;;;;6.33;3.70;;;28.00;39.20;;;;;;4996702;28;20460;-65
2021/03/30 13:31:48;;;;;;;6.50;3.70;;;28.20;39.60;;;;;;4996273;28;20461;-65
2021/03/30 13:34:14;;;;;;;4.23;4.00;;;28.30;38.10;;;;;;4995891;28;20953;-65
2021/03/30 13:36:40;;;;;;;4.40;4.00;;;28.40;35.40;;;;;;4996200;28;20509;-65
2021/03/30 13:39:07;;;;;;;7.80;3.70;;;28.30;34.80;;;;;;4996437;28;20459;-64
2021/03/30 13:41:36;;;;;;;7.53;4.20;;;28.20;36.70;;;;;;4996172;28;20457;-63
2021/03/30 13:44:02;;;;;;;12.60;5.13;;;28.20;37.00;;;;;;4996106;28;20477;-64
2021/03/30 13:46:28;;;;;;;7.77;4.27;;;28.00;39.30;;;;;;4995899;28;20489;-64
2021/03/30 13:48:54;;;;;;;5.13;3.73;;;27.70;39.20;;;;;;4995696;28;20454;-64
2021/03/30 13:51:20;;;;;;;5.80;3.77;;;27.40;39.30;;;;;;4995790;28;20843;-64
2021/03/30 13:53:47;;;;;;;4.23;3.93;;;27.60;37.90;;;;;;4995488;28;20477;-63
2021/03/30 13:56:14;;;;;;;4.60;3.83;;;27.60;35.50;;;;;;4995596;28;20457;-63
2021/03/30 13:58:40;;;;;;;4.17;3.77;;;27.90;38.10;;;;;;4995187;28;20956;-63
2021/03/30 14:01:06;;;;;;;4.43;3.60;;;28.10;36.70;;;;;;4995540;28;20480;-64
2021/03/30 14:03:32;;;;;;;26.93;4.33;;;28.30;34.60;;;;;;4995265;28;20536;-64
2021/03/30 14:05:58;;;;;;;5.53;3.13;;;28.50;35.80;;;;;;4995941;28;20457;-63
2021/03/30 14:08:25;;;;;;;5.93;4.17;;;28.20;36.40;;;;;;4995413;28;20453;-64
2021/03/30 14:10:51;;;;;;;3.80;3.50;;;28.40;35.30;;;;;;4995304;28;20487;-63
2021/03/30 14:13:19;;;;;;;6.00;3.27;;;28.30;36.00;;;;;;4996199;28;20485;-64
2021/03/30 14:15:51;;;;;;;3.57;3.10;;;28.40;35.70;;;;;;4995505;28;20454;-64
2021/03/30 14:18:28;;;;;;;3.37;3.10;;;28.50;33.80;;;;;;4994992;28;20453;-63
2021/03/30 14:21:03;;;;;;;3.10;2.90;;;28.50;35.40;;;;;;4995337;28;20438;-63
2021/03/30 14:23:54;;;;;;;5.70;3.70;;;28.30;36.20;;;;;;4995143;28;20496;-64
2021/03/30 14:26:22;;;;;;;3.00;2.70;;;28.50;34.60;;;;;;4994766;28;20960;-63
2021/03/30 14:28:51;;;;;;;5.17;3.20;;;28.50;34.40;;;;;;4994853;28;20847;-63
2021/03/30 14:31:17;;;;;;;3.83;3.50;;;28.60;35.70;;;;;;4994539;28;20489;-64
2021/03/30 14:33:45;;;;;;;4.00;3.37;;;28.80;34.00;;;;;;4994471;28;20505;-64
2021/03/30 14:36:11;;;;;;;4.50;2.90;;;28.70;34.70;;;;;;4994597;28;20460;-64
2021/03/30 14:38:38;;;;;;;6.97;2.80;;;28.30;33.20;;;;;;4994914;28;20453;-64
2021/03/30 14:41:04;;;;;;;2.97;2.77;;;28.20;34.60;;;;;;4994990;28;20545;-64
2021/03/30 14:43:40;;;;;;;3.43;2.83;;;27.90;35.00;;;;;;4994947;28;20478;-63
2021/03/30 14:46:35;;;;;;;2.77;2.57;;;27.80;37.20;;;;;;4994395;28;20445;-63
2021/03/30 14:51:58;;;;;;;2.90;2.60;;;28.30;37.80;;;;;;5017317;23;20512;-62
2021/03/30 14:54:25;;;;;;;2.33;2.13;;;28.00;31.30;;;;;;4994732;28;20476;-65
2021/03/30 14:56:55;;;;;;;2.93;2.73;;;28.00;34.80;;;;;;4994413;28;20540;-66
2021/03/30 14:59:33;;;;;;;2.87;2.67;;;28.00;31.60;;;;;;4994445;28;20451;-65
2021/03/30 15:02:18;;;;;;;2.97;2.67;;;27.80;30.60;;;;;;4994861;28;20560;-65
2021/03/30 15:04:44;;;;;;;3.20;2.90;;;27.60;32.70;;;;;;4995261;28;20442;-65
2021/03/30 15:07:10;;;;;;;2.80;2.60;;;27.70;34.40;;;;;;4994794;28;20478;-65
2021/03/30 15:09:36;;;;;;;2.60;2.33;;;27.70;32.10;;;;;;4994859;28;20458;-65
2021/03/30 15:12:03;;;;;;;3.27;2.97;;;27.80;32.50;;;;;;4994828;28;20532;-65
2021/03/30 15:14:30;;;;;;;5.20;2.93;;;27.90;37.20;;;;;;4994472;28;20442;-66
2021/03/30 15:16:56;;;;;;;5.20;4.07;;;27.70;35.50;;;;;;4994131;28;20454;-65
2021/03/30 15:19:23;;;;;;;9.13;3.67;;;27.80;35.60;;;;;;4994406;28;20508;-65
2021/03/30 15:21:49;;;;;;;3.53;2.83;;;27.70;35.30;;;;;;4994871;28;20585;-66
2021/03/30 15:24:16;;;;;;;3.23;3.03;;;27.40;33.90;;;;;;4995082;28;20469;-66
2021/03/30 15:26:43;;;;;;;4.00;3.00;;;27.60;35.40;;;;;;4995340;28;20480;-66
2021/03/30 15:29:09;;;;;;;3.77;3.37;;;27.70;37.40;;;;;;4994816;28;20462;-66
2021/03/30 15:31:35;;;;;;;4.97;2.90;;;27.60;34.20;;;;;;4994462;28;20489;-67
2021/03/30 15:34:02;;;;;;;3.03;2.73;;;27.40;33.60;;;;;;4994239;28;20454;-67
2021/03/30 15:36:30;;;;;;;2.93;2.60;;;27.60;33.30;;;;;;4994636;28;20500;-66
2021/03/30 15:38:56;;;;;;;3.30;2.90;;;27.30;34.30;;;;;;4993936;28;20461;-66
2021/03/30 15:41:23;;;;;;;2.70;2.57;;;27.10;34.00;;;;;;4994163;28;20481;-66
2021/03/30 15:43:50;;;;;;;5.17;2.67;;;27.00;31.20;;;;;;4994280;28;20512;-66
2021/03/30 15:46:33;;;;;;;2.40;2.30;;;27.00;31.10;;;;;;4994202;28;20466;-67
2021/03/30 15:49:01;;;;;;;4.77;2.80;;;27.00;31.60;;;;;;4994189;28;20453;-67
2021/03/30 15:51:27;;;;;;;3.07;2.77;;;26.70;34.00;;;;;;4994933;28;20576;-66
2021/03/30 15:53:57;;;;;;;3.53;3.00;;;26.50;33.70;;;;;;4999004;28;20461;-68
2021/03/30 15:56:23;;;;;;;3.13;2.47;;;26.20;34.80;;;;;;5001190;28;20453;-68
2021/03/30 15:58:49;;;;;;;3.23;2.73;;;26.10;33.40;;;;;;5000122;28;20468;-66
2021/03/30 16:01:15;;;;;;;3.23;3.03;;;26.20;34.30;;;;;;4996803;28;20480;-67
2021/03/30 16:03:42;;;;;;;3.03;2.73;;;26.00;35.20;;;;;;4996491;28;20915;-67
2021/03/30 16:06:08;;;;;;;4.00;3.50;;;25.80;35.50;;;;;;4998806;28;20441;-68
2021/03/30 16:08:34;;;;;;;11.50;3.40;;;25.80;36.10;;;;;;4997918;28;20460;-68
2021/03/30 16:11:01;;;;;;;4.07;3.00;;;25.70;38.60;;;;;;4997236;28;20535;-69
2021/03/30 16:13:28;;;;;;;5.03;4.40;;;25.70;35.90;;;;;;4997419;28;20812;-69
2021/03/30 16:15:54;;;;;;;4.23;3.83;;;25.60;36.90;;;;;;4997330;28;20507;-69
2021/03/30 16:18:20;;;;;;;3.73;3.43;;;25.40;35.90;;;;;;4997070;28;20783;-67
2021/03/30 16:20:47;;;;;;;3.37;3.07;;;25.50;37.00;;;;;;4997035;28;20477;-69
2021/03/30 16:23:13;;;;;;;5.27;3.10;;;25.50;36.10;;;;;;4997996;28;20457;-68
2021/03/30 16:25:39;;;;;;;3.20;2.77;;;25.50;35.50;;;;;;4997079;28;20454;-68
2021/03/30 16:28:06;;;;;;;2.80;2.60;;;25.30;36.60;;;;;;4996960;28;20489;-68
2021/03/30 16:30:33;;;;;;;3.40;2.27;;;25.20;37.60;;;;;;4996609;28;20477;-68
2021/03/30 16:32:59;;;;;;;2.70;2.27;;;25.20;36.80;;;;;;4997219;28;20453;-68
2021/03/30 16:35:25;;;;;;;4.07;2.03;;;25.00;36.20;;;;;;4996856;28;20457;-68
2021/03/30 16:37:51;;;;;;;5.80;2.80;;;24.80;37.30;;;;;;4996550;28;20474;-69
2021/03/30 16:40:18;;;;;;;3.83;2.73;;;24.80;37.70;;;;;;4996790;28;20489;-68
2021/03/30 16:42:44;;;;;;;2.70;2.40;;;24.70;39.20;;;;;;4996690;28;20464;-67
2021/03/30 16:45:12;;;;;;;7.03;2.93;;;24.60;42.90;;;;;;4997383;28;20488;-67
2021/03/30 16:47:38;;;;;;;12.23;3.50;;;24.50;41.90;;;;;;4996710;28;20540;-66
2021/03/30 16:50:08;;;;;;;6.20;3.77;;;24.50;42.90;;;;;;4996627;28;20524;-66
2021/03/30 16:52:35;;;;;;;3.90;3.17;;;24.30;42.90;;;;;;4997455;28;20449;-66
2021/03/30 16:55:01;;;;;;;6.67;3.50;;;24.20;43.20;;;;;;4996307;28;20457;-66
2021/03/30 16:57:27;;;;;;;7.30;3.80;;;24.10;43.40;;;;;;4996835;28;20453;-67
2021/03/30 16:59:53;;;;;;;18.97;4.63;;;24.10;42.90;;;;;;4996416;28;20491;-67